Etusivu
METAR-TAF:

METAR-TAF

Lentoasemat :

Bagdadin kansainvälinen lentoasema

Bagdad, Irak

Leveyspiiri: 33-15-45N, Pituuspiiri: 44-14-04E, korkeus merenpinnasta: 35 m

Tämänhetkinen sää

Tämä raportti tehtiin 42 minuuttia sitten, kello 08.00 UTC
Tuuli 5 kn lännestä, vaihdellen lounaan ja lännen/luoteen välillä
Lämpötila 36°C
Kosteus 22%
Ilmanpaine 1008 hPa
Näkyvyys 10 km tai enemmän
ei pilviä alle 1500 m:ssä eikä cumulonimbus-pilviä

METAR: ORBI 200800Z 26005KT 220V300 CAVOK 36/11 Q1008 NOSIG

Aika: 11:42 (08:42 UTC)

Sääennuste

Tämä raportti tehtiin 4 tuntia ja 42 minuuttia sitten, kello 04.00 UTC
Ennuste voimassa 20. päivästä klo 06 UTC - 21. päivään klo 06 UTC
Tuuli 12 kn lännestä/luoteesta
Näkyvyys: 8000 m

TAF: ORBI 200400Z 2006/2106 30012KT 8000 NSC

Säähavainnot ja -ennusteet yli 4000 lentoasemalta (METAR- ja TAF-raportit).

Käytössä olevat sääasemat on merkitty karttaan keltaisilla ja punaisilla pisteillä.

Aseta hiiri pisteen päälle nähdäksesi sääaseman nimen.

Klikkaa sitten nähdäksesi säähavainnot ja -ennusteet.

Kartan vaihtaminen: klikkaa mustalla rastilla varustettuja vihreitä pisteitä, niin voit zoomata sisään; viivalla varustettua vihreää pistettä, niin voit zoomata ulos tai vihreitä nuolia, niin pääset viereisille kartoille.


METAR-TAF: